Conimicut Light, RI current weather conditions

sailwx.info

Wind from 168 at 27 knots gusting 32

Air temperature 11.1° C
Water temperature 5.6° C

Last reported at 2019-Dec-09 17:36 UTC.
Time now 2019-Dec-09 23:45 UTC

Location: N 41°43' W 071°21'.
View on Google Maps.

See reports from other nearby stations

  
Tides and Currents Weather Stations Pressure Air Temp Water Temp Dewpoint Dewpoint Depression Visibility Wind Speed Wind Dir Waves Ship Positions
date/time (UTC)wind fromknots sea level pressurealtimeterstation pressurevisibilityair tempwater tempwave heightnotes
2019-Dec-09 17:36 168 27 gusting 32 11.1 5.6
2019-Dec-09 17:30 165 26 gusting 29 10.6 5.6
2019-Dec-09 17:24 169 23 gusting 25 10.6 5.6
2019-Dec-09 17:18 168 23 gusting 28 10.6 5.6
2019-Dec-09 17:12 167 26 gusting 30 10.6 5.6
2019-Dec-09 17:06 168 26 gusting 31 10.0 5.6
2019-Dec-09 17:00 165 26 gusting 33 10.6 5.6
2019-Dec-09 16:54 163 29 gusting 34 10.0 5.6
2019-Dec-09 16:48 154 29 gusting 33 10.0 5.6
2019-Dec-09 16:42 148 24 gusting 27 9.4 6.1
2019-Dec-09 16:36 151 18 gusting 19 9.4 6.1
2019-Dec-09 16:30 146 17 gusting 19 8.9 6.1
2019-Dec-09 16:24 149 17 gusting 18 8.3 6.1
2019-Dec-09 16:18 156 18 gusting 19 8.9 6.1
2019-Dec-09 16:12 157 19 gusting 20 8.9 6.1
2019-Dec-09 16:06 158 19 gusting 20 8.9 5.6
2019-Dec-09 16:00 160 17 gusting 19 8.9 5.6
2019-Dec-09 15:54 173 13 gusting 17 8.3 5.6
2019-Dec-09 15:48 171 17 gusting 20 8.9 5.6
2019-Dec-09 15:42 171 19 gusting 21 9.4 5.6
2019-Dec-09 15:36 169 20 gusting 22 9.4 5.6
2019-Dec-09 15:30 166 20 gusting 21 9.4 5.0
2019-Dec-09 15:24 165 19 gusting 20 9.4 5.0
2019-Dec-09 15:18 166 17 gusting 19 9.4 5.0
2019-Dec-09 15:12 170 16 gusting 18 8.9 5.0
2019-Dec-09 15:00 170 16 gusting 18 8.3 5.0
2019-Dec-09 14:54 173 19 gusting 21 9.4 5.6
2019-Dec-09 14:48 168 15 gusting 18 8.9 5.6
2019-Dec-09 14:42 156 16 gusting 19 8.9 5.6
2019-Dec-09 14:36 150 15 gusting 17 8.9 5.6
2019-Dec-09 14:30 145 13 gusting 15 8.3 5.6
2019-Dec-09 14:24 149 11 gusting 13 8.3 5.6
2019-Dec-09 14:18 157 10 gusting 13 7.8 5.6
2019-Dec-09 14:12 164 13 gusting 14 8.3 5.6
2019-Dec-09 14:06 165 12 gusting 13 8.3 5.6
2019-Dec-09 14:00 162 13 gusting 13 8.9 5.6
2019-Dec-09 13:54 149 9 gusting 10 7.8 5.6
2019-Dec-09 13:48 156 7 gusting 9 8.3 5.6
2019-Dec-09 13:42 149 5 gusting 6 7.2 5.6
2019-Dec-09 13:36 156 6 gusting 6 7.8 5.6
2019-Dec-09 13:30 163 6 gusting 6 7.2 5.6
2019-Dec-09 13:24 156 5 gusting 6 7.2 5.6
2019-Dec-09 13:18 156 5 gusting 6 7.2 5.6
2019-Dec-09 13:12 158 5 gusting 6 7.8 5.6
2019-Dec-09 13:06 163 6 gusting 8 7.2 5.6
2019-Dec-09 13:00 169 8 gusting 10 7.2 5.6
2019-Dec-09 12:54 172 9 gusting 10 7.2 5.6
2019-Dec-09 12:48 180 8 gusting 8 7.2 5.6
2019-Dec-09 12:36 180 8 gusting 8 6.7 5.0
2019-Dec-09 12:30 173 9 gusting 10 7.2 5.0
2019-Dec-09 12:24 176 9 gusting 10 7.2 5.0
2019-Dec-09 12:18 177 9 gusting 10 7.2 5.0
2019-Dec-09 12:12 178 10 gusting 11 7.8 5.0
2019-Dec-09 12:06 182 10 gusting 11 7.8 5.0
2019-Dec-08 21:12 214 7 gusting 10 1.7 5.6
2019-Dec-08 21:06 203 8 gusting 11 2.2 5.6
2019-Dec-08 21:00 205 10 gusting 13 2.2 5.6
2019-Dec-08 20:54 205 11 gusting 12 2.2 5.6
2019-Dec-08 20:48 204 11 gusting 12 2.2 6.1
2019-Dec-08 20:42 204 9 gusting 13 2.2 6.1
2019-Dec-08 20:36 209 11 gusting 13 2.2 6.1
2019-Dec-08 20:30 204 11 gusting 13 2.2 6.1
2019-Dec-08 20:24 208 11 gusting 13 2.2 6.1
2019-Dec-08 20:18 215 9 gusting 16 2.2 6.1
2019-Dec-08 20:12 197 15 gusting 18 2.2 6.1
2019-Dec-08 20:06 201 13 gusting 18 2.2 6.1
2019-Dec-08 20:00 206 13 gusting 16 2.2 6.1
2019-Dec-08 19:54 206 12 gusting 15 2.2 6.1
2019-Dec-08 19:48 208 12 gusting 14 2.2 6.1
2019-Dec-08 19:42 207 13 gusting 17 2.2 6.1
2019-Dec-08 19:36 204 14 gusting 17 1.7 6.7
2019-Dec-08 19:30 200 14 gusting 18 1.7 6.7
2019-Dec-08 19:24 197 14 gusting 18 1.7 6.7
2019-Dec-08 19:18 193 15 gusting 18 1.7 7.2
2019-Dec-08 19:12 189 14 gusting 17 1.7 7.2
2019-Dec-08 19:06 196 13 gusting 16 1.7 7.2
2019-Dec-08 19:00 203 14 gusting 17 1.7 6.7
2019-Dec-08 18:54 208 13 gusting 14 1.7 6.7
2019-Dec-08 18:48 202 11 gusting 15 1.7 6.1
2019-Dec-08 18:42 206 12 gusting 13 1.7 5.6
2019-Dec-08 18:36 192 12 gusting 13 1.1 5.6
2019-Dec-08 18:30 186 11 gusting 14 1.1 5.6
2019-Dec-08 18:24 179 13 gusting 16 1.1 5.6
2019-Dec-08 18:18 180 13 gusting 14 1.1 5.6
2019-Dec-08 18:12 189 11 gusting 13 1.7 5.0
2019-Dec-08 18:06 169 13 gusting 14 1.1 5.0
2019-Dec-08 18:00 182 11 gusting 14 1.1 5.0
2019-Dec-08 17:54 177 13 gusting 14 1.1 5.0
2019-Dec-08 17:48 178 12 gusting 14 0.6 5.0
2019-Dec-08 17:42 180 11 gusting 14 0.6 4.4
2019-Dec-08 17:36 178 13 gusting 14 0.6 4.4
2019-Dec-08 17:30 179 13 gusting 15 0.6 5.0
2019-Dec-08 17:24 186 13 gusting 15 0.6 5.0
2019-Dec-08 17:18 166 9 gusting 11 -0.0 5.0
2019-Dec-08 17:12 162 8 gusting 10 -0.0 5.0
2019-Dec-08 17:06 168 8 gusting 9 -0.6 5.0
2019-Dec-08 17:00 171 7 gusting 8 -0.6 5.0
2019-Dec-08 16:54 166 6 gusting 7 -0.6 5.0
2019-Dec-08 16:48 180 6 gusting 7 -0.6 5.6
2019-Dec-08 16:42 181 5 gusting 7 -0.6 5.6
2019-Dec-08 16:36 189 6 gusting 8 -0.6 5.6
2019-Dec-08 16:30 195 7 gusting 9 -1.1 6.1
2019-Dec-08 16:24 202 6 gusting 9 -1.1 6.1
2019-Dec-08 16:18 197 6 gusting 7 -1.1 6.1
2019-Dec-08 16:12 196 6 gusting 8 -1.1 6.1
2019-Dec-08 16:06 188 7 gusting 8 -1.1 6.1
2019-Dec-08 16:00 193 6 gusting 8 -1.1 5.6
2019-Dec-08 15:54 194 6 gusting 7 -1.7 5.6
2019-Dec-08 15:48 196 6 gusting 8 -1.7 5.0
2019-Dec-08 15:42 179 7 gusting 9 -1.7 4.4
2019-Dec-08 15:36 161 2 gusting 3 -1.7 4.4
2019-Dec-08 15:30 158 2 gusting 5 -2.2 4.4
2019-Dec-08 15:24 175 2 gusting 4 -2.2 4.4
2019-Dec-08 15:18 164 3 gusting 4 -2.2 4.4
2019-Dec-08 15:12 181 3 gusting 4 -2.2 4.4
2019-Dec-08 15:06 161 3 gusting 5 -2.2 4.4
2019-Dec-08 15:00 160 3 gusting 5 -2.8 4.4
2019-Dec-08 14:54 174 3 gusting 6 -2.2 3.9
2019-Dec-08 14:48 162 3 gusting 4 -2.8 3.9
2019-Dec-08 14:42 154 3 gusting 3 -3.3 3.9
2019-Dec-08 14:36 141 1 gusting 3 -3.3 4.4
2019-Dec-08 14:30 119 1 gusting 2 -2.8 4.4
2019-Dec-08 14:24 160 1 gusting 3 -2.8 4.4
2019-Dec-08 14:18 154 1 gusting 2 -2.8 4.4
2019-Dec-08 14:12 189 0 gusting 1 -2.2 4.4
2019-Dec-08 14:06 159 0 gusting 1 -2.2 4.4
2019-Dec-08 14:00 211 -2.8 4.4
2019-Dec-08 13:54 217 -3.3 4.4
2019-Dec-08 13:48 247 1 gusting 1 -4.4 4.4
2019-Dec-08 13:42 233 1 gusting 2 -4.4 4.4
2019-Dec-08 13:36 256 0 gusting 1 -4.4 4.4
2019-Dec-08 13:30 254 0 gusting 1 -4.4 3.9
2019-Dec-08 13:24 252 0 gusting 1 -5.0 3.9
2019-Dec-08 13:18 265 0 gusting 1 -5.0 3.9
2019-Dec-08 13:12 271 0 gusting 1 -5.0 3.9
2019-Dec-08 13:06 291 0 gusting 2 -5.0 3.9
2019-Dec-08 13:00 282 1 gusting 3 -5.6 3.9
2019-Dec-08 12:54 262 1 gusting 2 -5.0 3.9
2019-Dec-08 12:48 288 0 gusting 1 -4.4 3.9
2019-Dec-08 12:42 297 0 gusting 3 -5.0 4.4
2019-Dec-08 12:36 317 2 gusting 3 -4.4 4.4
2019-Dec-08 12:30 303 2 gusting 3 -5.0 4.4
2019-Dec-08 12:24 306 2 gusting 4 -5.6 4.4
2019-Dec-08 12:18 305 3 gusting 5 -5.6 4.4
2019-Dec-08 12:12 308 3 gusting 4 -5.6 4.4
2019-Dec-08 12:06 299 2 gusting 5 -6.1 4.4
2019-Dec-08 12:00 288 4 gusting 5 -6.1 4.4
2019-Dec-08 11:54 287 4 gusting 5 -6.1 4.4
2019-Dec-08 11:48 286 3 gusting 5 -6.1 4.4
2019-Dec-08 11:42 266 4 gusting 6 -5.6 4.4